createdAt,value
2018-08-18T00:02:28.603Z,20.80
2018-08-18T00:04:56.973Z,20.80
2018-08-18T00:07:25.393Z,20.80
2018-08-18T00:09:53.829Z,20.80
2018-08-18T00:12:28.330Z,20.80
2018-08-18T00:14:56.978Z,20.70
2018-08-18T00:17:25.411Z,20.70
2018-08-18T00:19:54.441Z,20.60
2018-08-18T00:22:22.848Z,20.50
2018-08-18T00:24:57.708Z,20.40
2018-08-18T00:27:26.609Z,20.40
2018-08-18T00:30:00.438Z,20.30
2018-08-18T00:32:29.288Z,20.20
2018-08-18T00:34:57.649Z,20.30
2018-08-18T00:37:26.325Z,20.20
2018-08-18T00:39:55.570Z,20.20
2018-08-18T00:42:24.242Z,20.20
2018-08-18T00:44:52.979Z,20.10
2018-08-18T00:47:21.486Z,20.10
2018-08-18T00:49:50.010Z,20.00
2018-08-18T00:52:18.405Z,20.00
2018-08-18T00:54:46.820Z,19.90
2018-08-18T00:57:28.638Z,20.00
2018-08-18T00:59:57.212Z,20.00
2018-08-18T01:02:26.139Z,20.00
2018-08-18T01:04:55.288Z,19.90
2018-08-18T01:07:24.609Z,20.00
2018-08-18T01:09:53.032Z,20.00
2018-08-18T01:12:21.587Z,19.90
2018-08-18T01:14:49.864Z,19.90
2018-08-18T01:17:18.229Z,19.80
2018-08-18T01:19:47.490Z,19.80
2018-08-18T01:22:15.877Z,19.80
2018-08-18T01:24:44.254Z,19.80
2018-08-18T01:27:12.698Z,19.80
2018-08-18T01:29:41.309Z,19.70
2018-08-18T01:32:09.728Z,19.70
2018-08-18T01:34:38.097Z,19.70
2018-08-18T01:37:11.810Z,19.70
2018-08-18T01:39:40.314Z,19.70
2018-08-18T01:42:09.025Z,19.60
2018-08-18T01:44:37.393Z,19.60
2018-08-18T01:47:09.582Z,19.60
2018-08-18T01:49:38.483Z,19.50
2018-08-18T01:52:13.495Z,19.50
2018-08-18T01:54:42.452Z,19.50
2018-08-18T01:57:12.361Z,19.50
2018-08-18T01:59:42.801Z,19.50
2018-08-18T02:02:12.435Z,19.50
2018-08-18T02:04:41.390Z,19.50
2018-08-18T02:07:33.930Z,19.50
2018-08-18T02:10:02.341Z,19.60
2018-08-18T02:12:31.055Z,19.60
2018-08-18T02:15:00.004Z,19.60
2018-08-18T02:17:37.162Z,19.60
2018-08-18T02:20:07.473Z,19.60
2018-08-18T02:22:35.818Z,19.60
2018-08-18T02:25:04.621Z,19.60
2018-08-18T02:27:32.946Z,19.60
2018-08-18T02:30:12.756Z,19.60
2018-08-18T02:32:41.083Z,19.60
2018-08-18T02:35:09.479Z,19.60
2018-08-18T02:37:38.873Z,19.60
2018-08-18T02:40:10.087Z,19.60
2018-08-18T02:42:38.330Z,19.50
2018-08-18T02:45:07.825Z,19.50
2018-08-18T02:47:36.146Z,19.50
2018-08-18T02:50:06.200Z,19.50
2018-08-18T02:52:35.328Z,19.50
2018-08-18T02:55:05.170Z,19.50
2018-08-18T02:57:36.609Z,19.50
2018-08-18T03:00:13.051Z,19.40
2018-08-18T03:02:41.369Z,19.30
2018-08-18T03:05:09.997Z,19.30
2018-08-18T03:07:42.661Z,19.30
2018-08-18T03:10:16.559Z,19.40
2018-08-18T03:12:45.919Z,19.40
2018-08-18T03:16:18.695Z,19.40
2018-08-18T03:18:50.821Z,19.40
2018-08-18T03:21:25.370Z,19.40
2018-08-18T03:24:05.212Z,19.30
2018-08-18T03:26:40.166Z,19.30
2018-08-18T03:29:08.669Z,19.30
2018-08-18T03:31:38.671Z,19.20
2018-08-18T03:34:07.951Z,19.10
2018-08-18T03:36:37.785Z,19.10
2018-08-18T03:39:12.087Z,19.00
2018-08-18T03:41:40.423Z,19.00
2018-08-18T03:44:08.792Z,19.00
2018-08-18T03:46:37.123Z,19.10
2018-08-18T03:49:05.697Z,19.10
2018-08-18T03:51:39.577Z,19.00
2018-08-18T03:54:07.982Z,19.00
2018-08-18T03:56:36.323Z,19.00
2018-08-18T03:59:04.677Z,19.00
2018-08-18T04:01:43.691Z,19.00
2018-08-18T04:04:13.314Z,19.00
2018-08-18T04:06:42.785Z,19.00
2018-08-18T04:09:14.217Z,19.00
2018-08-18T04:11:42.561Z,19.00
2018-08-18T04:14:10.935Z,19.10
2018-08-18T04:16:46.827Z,19.10
2018-08-18T04:19:16.274Z,19.10
2018-08-18T04:21:46.026Z,19.10
2018-08-18T04:24:14.825Z,19.10
2018-08-18T04:26:43.427Z,19.10
2018-08-18T04:29:11.730Z,19.10
2018-08-18T04:31:40.087Z,19.10
2018-08-18T04:34:08.771Z,19.10
2018-08-18T04:36:37.490Z,19.00
2018-08-18T04:39:09.216Z,19.00
2018-08-18T04:41:37.596Z,19.00
2018-08-18T04:44:06.193Z,19.00
2018-08-18T04:46:34.706Z,19.00
2018-08-18T04:49:03.344Z,19.00
2018-08-18T04:51:31.750Z,19.00
2018-08-18T04:54:00.231Z,19.00
2018-08-18T04:56:28.612Z,19.00
2018-08-18T04:58:57.502Z,19.00
2018-08-18T05:01:25.834Z,19.10
2018-08-18T05:04:13.549Z,19.10
2018-08-18T05:06:43.211Z,19.10
2018-08-18T05:09:13.679Z,19.10
2018-08-18T05:11:43.017Z,19.20
2018-08-18T05:14:11.342Z,19.20
2018-08-18T05:16:39.689Z,19.20
2018-08-18T05:19:08.072Z,19.30
2018-08-18T05:21:36.409Z,19.30
2018-08-18T05:24:20.288Z,19.30
2018-08-18T05:26:48.796Z,19.40
2018-08-18T05:29:17.121Z,19.40
2018-08-18T05:31:45.600Z,19.50
2018-08-18T05:34:14.002Z,19.50
2018-08-18T05:36:42.742Z,19.60
2018-08-18T05:39:11.500Z,19.60
2018-08-18T05:41:40.160Z,19.70
2018-08-18T05:44:08.492Z,19.70
2018-08-18T05:46:36.835Z,19.80
2018-08-18T05:49:10.649Z,19.90
2018-08-18T05:51:43.202Z,19.90
2018-08-18T05:54:13.567Z,20.10
2018-08-18T05:56:44.502Z,20.10
2018-08-18T05:59:12.821Z,20.20
2018-08-18T06:01:41.877Z,20.20
2018-08-18T06:04:13.358Z,20.30
2018-08-18T06:06:42.510Z,20.30
2018-08-18T06:09:12.321Z,20.40
2018-08-18T06:11:40.660Z,20.40
2018-08-18T06:14:09.822Z,20.50
2018-08-18T06:16:38.235Z,20.60
2018-08-18T06:19:06.743Z,20.60
2018-08-18T06:21:35.119Z,20.70
2018-08-18T06:24:03.623Z,20.70
2018-08-18T06:26:31.965Z,20.80
2018-08-18T06:29:00.337Z,20.90
2018-08-18T06:31:28.917Z,21.00
2018-08-18T06:33:57.942Z,21.00
2018-08-18T06:36:26.848Z,21.10
2018-08-18T06:38:55.216Z,21.10
2018-08-18T06:41:23.853Z,21.10
2018-08-18T06:43:52.411Z,21.20
2018-08-18T06:46:20.781Z,21.30
2018-08-18T06:48:49.172Z,21.40
2018-08-18T06:51:17.529Z,21.40
2018-08-18T06:53:48.891Z,21.50
2018-08-18T06:56:17.676Z,21.60
2018-08-18T06:58:46.863Z,21.70
2018-08-18T07:01:15.286Z,21.80
2018-08-18T07:03:46.367Z,21.90
2018-08-18T07:06:16.314Z,22.00
2018-08-18T07:08:50.082Z,22.00
2018-08-18T07:11:18.452Z,22.10
2018-08-18T07:13:47.489Z,22.20
2018-08-18T07:16:15.868Z,22.30
2018-08-18T07:18:44.346Z,22.30
2018-08-18T07:21:13.179Z,22.30
2018-08-18T07:23:41.543Z,22.40
2018-08-18T07:26:09.967Z,22.50
2018-08-18T07:28:38.321Z,22.50
2018-08-18T07:31:06.704Z,22.60
2018-08-18T07:33:35.354Z,22.70
2018-08-18T07:36:03.862Z,22.70
2018-08-18T07:38:32.225Z,22.80
2018-08-18T07:41:00.702Z,22.90
2018-08-18T07:43:32.189Z,22.90
2018-08-18T07:46:02.098Z,22.90
2018-08-18T07:48:30.951Z,22.90
2018-08-18T07:50:59.434Z,22.90
2018-08-18T07:53:27.846Z,23.00
2018-08-18T07:55:57.031Z,23.00
2018-08-18T07:58:25.717Z,23.10
2018-08-18T08:00:56.767Z,23.20
2018-08-18T08:03:25.149Z,23.20
2018-08-18T08:05:53.504Z,23.40
2018-08-18T08:08:23.426Z,23.50
2018-08-18T08:10:55.513Z,23.50
2018-08-18T08:13:23.856Z,23.70
2018-08-18T08:15:52.223Z,23.70
2018-08-18T08:18:20.678Z,23.80
2018-08-18T08:20:49.004Z,23.90
2018-08-18T08:23:17.424Z,23.90
2018-08-18T08:25:46.378Z,24.00
2018-08-18T08:28:14.735Z,24.10
2018-08-18T08:30:43.566Z,24.00
2018-08-18T08:33:14.738Z,23.90
2018-08-18T08:38:23.028Z,24.00
2018-08-18T08:40:51.433Z,24.20
2018-08-18T08:43:30.970Z,24.30
2018-08-18T08:45:59.334Z,24.40
2018-08-18T08:48:28.090Z,24.50
2018-08-18T08:50:56.625Z,24.60
2018-08-18T08:53:25.058Z,24.70
2018-08-18T08:55:54.355Z,24.70
2018-08-18T08:58:22.735Z,24.90
2018-08-18T09:00:51.083Z,25.00
2018-08-18T09:03:19.470Z,24.90
2018-08-18T09:05:47.932Z,24.90
2018-08-18T09:08:16.390Z,25.00
2018-08-18T09:10:44.721Z,25.00
2018-08-18T09:13:13.087Z,24.90
2018-08-18T09:15:41.559Z,24.80
2018-08-18T09:18:09.962Z,24.80
2018-08-18T09:20:45.173Z,24.70
2018-08-18T09:23:13.576Z,24.80
2018-08-18T09:25:41.987Z,24.90
2018-08-18T09:28:10.372Z,25.00
2018-08-18T09:30:38.689Z,25.10
2018-08-18T09:33:07.423Z,25.30
2018-08-18T09:35:54.270Z,25.50
2018-08-18T09:38:22.651Z,25.70
2018-08-18T09:40:51.023Z,25.80
2018-08-18T09:43:24.117Z,25.90
2018-08-18T09:45:53.958Z,26.00
2018-08-18T09:48:23.562Z,26.10
2018-08-18T09:50:52.238Z,26.20
2018-08-18T09:53:20.663Z,26.30
2018-08-18T09:55:49.629Z,26.20
2018-08-18T09:58:18.026Z,26.30
2018-08-18T10:00:46.431Z,26.20
2018-08-18T10:03:15.461Z,26.10
2018-08-18T10:05:43.860Z,26.00
2018-08-18T10:08:13.041Z,26.00
2018-08-18T10:10:41.398Z,26.10
2018-08-18T10:13:09.790Z,26.30
2018-08-18T10:15:38.172Z,26.40
2018-08-18T10:18:06.605Z,26.50
2018-08-18T10:20:40.216Z,26.70
2018-08-18T10:23:10.466Z,26.90
2018-08-18T10:25:38.820Z,27.10
2018-08-18T10:28:08.135Z,27.10
2018-08-18T10:30:36.582Z,27.10
2018-08-18T10:33:05.016Z,27.30
2018-08-18T10:35:33.430Z,27.40
2018-08-18T10:38:04.123Z,27.50
2018-08-18T10:40:32.688Z,27.90
2018-08-18T10:43:01.076Z,27.90
2018-08-18T10:45:29.452Z,28.00
2018-08-18T10:47:58.627Z,28.30
2018-08-18T10:51:41.412Z,28.40
2018-08-18T10:54:09.791Z,28.60
2018-08-18T10:56:38.302Z,29.20
2018-08-18T10:59:16.600Z,29.60
2018-08-18T11:02:26.293Z,29.60
2018-08-18T11:04:54.643Z,29.50
2018-08-18T11:07:24.194Z,29.80
2018-08-18T11:09:52.544Z,29.80
2018-08-18T11:12:20.869Z,30.20
2018-08-18T11:14:54.718Z,30.60
2018-08-18T11:17:23.063Z,31.00
2018-08-18T11:19:51.453Z,31.10
2018-08-18T11:23:15.408Z,30.80
2018-08-18T11:25:50.807Z,30.60
2018-08-18T11:28:19.809Z,31.50
2018-08-18T11:30:49.699Z,32.00
2018-08-18T11:33:34.558Z,31.80
2018-08-18T11:36:03.608Z,32.20
2018-08-18T11:38:32.610Z,32.20
2018-08-18T11:41:01.222Z,32.30
2018-08-18T11:43:31.972Z,32.30
2018-08-18T11:46:00.406Z,32.50
2018-08-18T11:48:29.940Z,32.70
2018-08-18T11:50:58.309Z,33.00
2018-08-18T11:53:27.651Z,33.10
2018-08-18T11:55:55.984Z,33.00
2018-08-18T11:58:25.241Z,33.60
2018-08-18T12:00:59.901Z,34.60
2018-08-18T12:03:35.335Z,34.60
2018-08-18T12:06:04.944Z,34.60
2018-08-18T12:08:34.527Z,35.00
2018-08-18T12:11:04.254Z,34.80
2018-08-18T12:13:37.886Z,34.90
2018-08-18T12:16:10.505Z,35.20
2018-08-18T12:18:40.225Z,35.40
2018-08-18T12:21:08.896Z,35.50
2018-08-18T12:23:38.820Z,36.40
2018-08-18T12:26:10.897Z,35.90
2018-08-18T12:28:44.867Z,36.10
2018-08-18T12:31:15.914Z,35.90
2018-08-18T12:33:44.447Z,35.70
2018-08-18T12:36:12.948Z,35.70
2018-08-18T12:38:43.701Z,35.50
2018-08-18T12:41:12.424Z,35.70
2018-08-18T12:43:44.065Z,35.90
2018-08-18T12:46:14.891Z,36.50
2018-08-18T12:48:45.782Z,38.20
2018-08-18T12:51:15.410Z,37.80
2018-08-18T12:53:51.006Z,37.50
2018-08-18T12:56:21.476Z,38.50
2018-08-18T12:58:49.941Z,38.80
2018-08-18T13:01:39.094Z,38.30
2018-08-18T13:04:09.763Z,37.80
2018-08-18T13:06:55.751Z,38.10
2018-08-18T13:09:26.580Z,37.90
2018-08-18T13:11:56.198Z,38.10
2018-08-18T13:14:26.241Z,38.80
2018-08-18T13:16:54.560Z,39.90
2018-08-18T13:19:24.588Z,40.20
2018-08-18T13:21:53.030Z,40.40
2018-08-18T13:24:21.582Z,40.30
2018-08-18T13:26:50.160Z,39.80
2018-08-18T13:29:18.566Z,39.50
2018-08-18T13:31:47.721Z,40.00
2018-08-18T13:34:17.501Z,40.50
2018-08-18T13:36:46.626Z,39.70
2018-08-18T13:39:20.236Z,40.20
2018-08-18T13:41:50.029Z,41.20
2018-08-18T13:44:30.812Z,41.20
2018-08-18T13:46:59.150Z,40.80
2018-08-18T13:49:27.864Z,40.40
2018-08-18T13:51:56.398Z,40.90
2018-08-18T13:54:24.831Z,40.50
2018-08-18T13:56:53.199Z,39.90
2018-08-18T13:59:38.719Z,39.90
2018-08-18T14:02:07.563Z,40.10
2018-08-18T14:04:36.189Z,41.20
2018-08-18T14:07:04.541Z,41.90
2018-08-18T14:09:32.912Z,42.30
2018-08-18T14:12:06.705Z,42.40
2018-08-18T14:14:35.157Z,42.60
2018-08-18T14:17:03.516Z,42.20
2018-08-18T14:19:32.383Z,42.30
2018-08-18T14:22:08.135Z,42.20
2018-08-18T14:24:38.054Z,42.70
2018-08-18T14:27:12.548Z,42.70
2018-08-18T14:29:40.886Z,43.50
2018-08-18T14:32:14.850Z,44.80
2018-08-18T14:34:45.894Z,45.10
2018-08-18T14:37:14.312Z,44.60
2018-08-18T14:39:43.685Z,44.20
2018-08-18T14:42:12.186Z,43.30
2018-08-18T14:44:40.628Z,43.40
2018-08-18T14:47:08.967Z,43.20
2018-08-18T14:49:37.326Z,43.00
2018-08-18T14:52:05.920Z,42.70
2018-08-18T14:54:34.350Z,42.60
2018-08-18T14:57:03.726Z,42.50
2018-08-18T14:59:35.445Z,42.70
2018-08-18T15:02:05.405Z,42.50
2018-08-18T15:05:05.110Z,43.10
2018-08-18T15:07:37.794Z,43.70
2018-08-18T15:10:06.198Z,44.10
2018-08-18T15:12:34.871Z,44.00
2018-08-18T15:15:03.247Z,44.70
2018-08-18T15:17:31.639Z,45.10
2018-08-18T15:20:01.132Z,45.40
2018-08-18T15:22:29.466Z,45.80
2018-08-18T15:24:57.873Z,45.90
2018-08-18T15:27:26.237Z,46.10
2018-08-18T15:29:57.526Z,46.60
2018-08-18T15:32:26.699Z,46.30
2018-08-18T15:34:55.032Z,45.40
2018-08-18T15:37:24.246Z,44.50
2018-08-18T15:39:52.578Z,44.50
2018-08-18T15:42:21.495Z,44.60
2018-08-18T15:44:58.546Z,44.40
2018-08-18T15:47:28.579Z,45.00
2018-08-18T15:49:57.487Z,44.00
2018-08-18T15:52:32.438Z,43.80
2018-08-18T15:55:02.061Z,42.50
2018-08-18T15:57:30.614Z,42.40
2018-08-18T15:59:59.062Z,42.60
2018-08-18T16:02:28.166Z,42.70
2018-08-18T16:04:56.833Z,43.60
2018-08-18T16:07:25.522Z,43.70
2018-08-18T16:09:53.868Z,43.60
2018-08-18T16:12:22.202Z,43.90
2018-08-18T16:14:50.558Z,44.70
2018-08-18T16:17:18.894Z,45.10
2018-08-18T16:19:47.318Z,45.20
2018-08-18T16:22:15.626Z,44.40
2018-08-18T16:24:45.619Z,44.40
2018-08-18T16:27:14.150Z,44.70
2018-08-18T16:29:42.629Z,44.50
2018-08-18T16:32:26.022Z,44.60
2018-08-18T16:35:03.389Z,43.90
2018-08-18T16:37:33.295Z,43.80
2018-08-18T16:40:02.254Z,43.40
2018-08-18T16:42:32.729Z,43.30
2018-08-18T16:45:01.588Z,43.70
2018-08-18T16:47:30.955Z,43.70
2018-08-18T16:49:59.302Z,43.70
2018-08-18T16:52:27.720Z,44.00
2018-08-18T16:54:56.119Z,44.30
2018-08-18T16:57:25.615Z,44.40
2018-08-18T16:59:53.966Z,43.90
2018-08-18T17:02:34.895Z,43.80
2018-08-18T17:05:04.315Z,43.80
2018-08-18T17:07:32.673Z,43.50
2018-08-18T17:10:01.010Z,43.10
2018-08-18T17:12:30.939Z,43.00
2018-08-18T17:14:59.643Z,42.80
2018-08-18T17:17:28.002Z,42.50
2018-08-18T17:21:01.026Z,42.30
2018-08-18T17:23:31.195Z,42.00
2018-08-18T17:25:59.549Z,41.40
2018-08-18T17:28:29.351Z,40.90
2018-08-18T17:30:57.850Z,40.60
2018-08-18T17:33:27.432Z,40.10
2018-08-18T17:35:56.666Z,39.60
2018-08-18T17:38:25.130Z,39.20
2018-08-18T17:40:53.458Z,39.00
2018-08-18T17:43:22.048Z,38.80
2018-08-18T17:45:57.986Z,38.60
2018-08-18T17:48:27.471Z,38.40
2018-08-18T17:50:57.285Z,38.10
2018-08-18T17:53:26.968Z,37.80
2018-08-18T17:56:02.664Z,37.50
2018-08-18T17:58:31.262Z,37.10
2018-08-18T18:01:00.157Z,36.90
2018-08-18T18:03:28.626Z,36.60
2018-08-18T18:05:57.481Z,36.30
2018-08-18T18:08:26.410Z,36.00
2018-08-18T18:10:54.986Z,35.60
2018-08-18T18:13:25.185Z,35.00
2018-08-18T18:15:53.789Z,34.30
2018-08-18T18:18:23.073Z,33.60
2018-08-18T18:20:52.852Z,33.00
2018-08-18T18:23:21.781Z,32.40
2018-08-18T18:25:50.294Z,31.80
2018-08-18T18:28:18.703Z,31.40
2018-08-18T18:30:47.191Z,30.90
2018-08-18T18:35:59.875Z,29.80
2018-08-18T18:38:29.263Z,29.30
2018-08-18T18:40:58.012Z,28.90
2018-08-18T18:43:26.507Z,28.60
2018-08-18T18:45:55.007Z,28.30
2018-08-18T18:48:23.312Z,28.10
2018-08-18T18:50:51.914Z,27.80
2018-08-18T18:53:20.257Z,27.60
2018-08-18T18:55:53.327Z,27.50
2018-08-18T18:58:21.730Z,27.40
2018-08-18T19:01:09.325Z,27.20
2018-08-18T19:03:37.959Z,27.10
2018-08-18T19:06:06.308Z,27.00
2018-08-18T19:08:41.125Z,26.80
2018-08-18T19:11:09.537Z,26.70
2018-08-18T19:13:37.874Z,26.70
2018-08-18T19:16:06.251Z,26.60
2018-08-18T19:18:34.594Z,26.50
2018-08-18T19:21:03.040Z,26.40
2018-08-18T19:23:32.538Z,26.30
2018-08-18T19:26:00.986Z,26.30
2018-08-18T19:28:29.511Z,26.20
2018-08-18T19:30:57.941Z,26.10
2018-08-18T19:33:26.438Z,26.00
2018-08-18T19:35:54.852Z,26.10
2018-08-18T19:38:23.797Z,26.10
2018-08-18T19:40:53.169Z,26.10
2018-08-18T19:43:24.066Z,26.00
2018-08-18T19:45:53.022Z,25.90
2018-08-18T19:48:22.777Z,25.80
2018-08-18T19:50:57.105Z,25.70
2018-08-18T19:53:30.127Z,25.60
2018-08-18T19:56:00.498Z,25.70
2018-08-18T19:58:30.091Z,25.60
2018-08-18T20:00:58.444Z,25.60
2018-08-18T20:03:27.339Z,25.50
2018-08-18T20:05:56.449Z,25.50
2018-08-18T20:08:26.343Z,25.40
2018-08-18T20:10:59.579Z,25.30
2018-08-18T20:13:29.208Z,25.20
2018-08-18T20:16:02.313Z,25.00
2018-08-18T20:18:32.548Z,25.00
2018-08-18T20:21:01.129Z,25.00
2018-08-18T20:23:29.914Z,25.00
2018-08-18T20:25:58.377Z,24.90
2018-08-18T20:28:26.805Z,24.80
2018-08-18T20:30:55.350Z,24.80
2018-08-18T20:33:23.795Z,24.70
2018-08-18T20:35:52.139Z,24.70
2018-08-18T20:38:20.537Z,24.60
2018-08-18T20:40:48.982Z,24.60
2018-08-18T20:43:17.432Z,24.50
2018-08-18T20:45:48.403Z,24.50
2018-08-18T20:48:20.026Z,24.50
2018-08-18T20:50:48.474Z,24.40
2018-08-18T20:53:18.575Z,24.40
2018-08-18T20:56:03.447Z,24.40
2018-08-18T20:58:33.147Z,24.40
2018-08-18T21:01:02.095Z,24.40
2018-08-18T21:03:46.939Z,24.30
2018-08-18T21:06:16.375Z,24.20
2018-08-18T21:08:44.716Z,24.10
2018-08-18T21:11:13.122Z,24.10
2018-08-18T21:13:41.584Z,24.00
2018-08-18T21:16:10.223Z,23.90
2018-08-18T21:18:38.549Z,23.70
2018-08-18T21:21:24.207Z,23.70
2018-08-18T21:23:52.882Z,23.70
2018-08-18T21:26:21.395Z,23.60
2018-08-18T21:28:51.347Z,23.60
2018-08-18T21:31:25.303Z,23.50
2018-08-18T21:33:54.993Z,23.50
2018-08-18T21:36:23.368Z,23.40
2018-08-18T21:38:51.869Z,23.40
2018-08-18T21:41:20.286Z,23.30
2018-08-18T21:43:49.239Z,23.20
2018-08-18T21:46:17.749Z,23.20
2018-08-18T21:48:48.682Z,23.20
2018-08-18T21:51:17.102Z,23.20
2018-08-18T21:53:45.930Z,23.10
2018-08-18T21:56:14.674Z,23.10
2018-08-18T21:58:43.043Z,23.10
2018-08-18T22:01:16.550Z,23.20
2018-08-18T22:03:45.583Z,23.10
2018-08-18T22:06:14.258Z,23.00
2018-08-18T22:08:42.889Z,23.00
2018-08-18T22:11:17.590Z,22.90
2018-08-18T22:13:56.494Z,22.80
2018-08-18T22:16:24.844Z,22.80
2018-08-18T22:19:03.102Z,22.70
2018-08-18T22:21:31.934Z,22.70
2018-08-18T22:24:02.107Z,22.60
2018-08-18T22:26:30.959Z,22.60
2018-08-18T22:29:01.446Z,22.50
2018-08-18T22:31:30.644Z,22.50
2018-08-18T22:34:00.014Z,22.40
2018-08-18T22:36:32.190Z,22.40
2018-08-18T22:39:01.009Z,22.30
2018-08-18T22:41:29.482Z,22.30
2018-08-18T22:43:59.184Z,22.20
2018-08-18T22:46:29.369Z,22.10
2018-08-18T22:48:57.713Z,22.10
2018-08-18T22:51:26.159Z,22.00
2018-08-18T22:53:55.641Z,21.90
2018-08-18T22:56:28.290Z,21.80
2018-08-18T22:59:03.781Z,21.80
2018-08-18T23:01:32.900Z,21.80
2018-08-18T23:04:02.260Z,21.80
2018-08-18T23:06:33.789Z,21.80
2018-08-18T23:09:02.157Z,21.80
2018-08-18T23:11:30.511Z,21.80
2018-08-18T23:13:58.955Z,21.80
2018-08-18T23:16:27.596Z,21.80
2018-08-18T23:18:56.602Z,21.90
2018-08-18T23:21:29.626Z,21.90
2018-08-18T23:24:00.900Z,21.90
2018-08-18T23:26:29.485Z,21.90
2018-08-18T23:28:58.480Z,21.90
2018-08-18T23:31:26.786Z,21.90
2018-08-18T23:33:55.164Z,21.90
2018-08-18T23:36:24.419Z,21.90
2018-08-18T23:38:57.931Z,22.00
2018-08-18T23:41:26.269Z,22.00
2018-08-18T23:43:54.686Z,22.00
2018-08-18T23:46:22.999Z,22.00
2018-08-18T23:48:51.729Z,22.00
2018-08-18T23:51:26.103Z,21.90
2018-08-18T23:53:54.488Z,21.80
2018-08-18T23:56:22.842Z,21.70
2018-08-18T23:58:51.322Z,21.60
